createdAt,value
2018-03-25T00:00:41.837Z,33.75
2018-03-25T00:03:10.434Z,31.42
2018-03-25T00:05:39.054Z,30.08
2018-03-25T00:08:07.660Z,30.65
2018-03-25T00:10:36.209Z,35.08
2018-03-25T00:13:04.915Z,38.97
2018-03-25T00:15:33.542Z,40.28
2018-03-25T00:18:02.121Z,40.63
2018-03-25T00:20:30.773Z,40.30
2018-03-25T00:23:01.144Z,44.05
2018-03-25T00:25:29.735Z,44.22
2018-03-25T00:27:58.321Z,46.45
2018-03-25T00:30:26.870Z,48.30
2018-03-25T00:32:55.493Z,48.30
2018-03-25T00:35:24.127Z,47.78
2018-03-25T00:37:52.670Z,49.92
2018-03-25T00:40:21.460Z,51.60
2018-03-25T00:42:50.044Z,50.80
2018-03-25T00:45:18.620Z,49.35
2018-03-25T00:47:47.225Z,50.42
2018-03-25T00:50:15.815Z,51.78
2018-03-25T00:52:44.399Z,54.78
2018-03-25T00:55:12.945Z,48.10
2018-03-25T00:57:42.039Z,44.95
2018-03-25T01:00:10.832Z,56.88
2018-03-25T01:02:39.452Z,51.60
2018-03-25T01:05:08.053Z,59.25
2018-03-25T01:07:36.794Z,61.33
2018-03-25T01:10:05.450Z,59.65
2018-03-25T01:12:34.108Z,56.40
2018-03-25T01:15:02.862Z,56.17
2018-03-25T01:17:31.652Z,54.25
2018-03-25T01:20:00.294Z,56.88
2018-03-25T01:22:29.835Z,58.85
2018-03-25T01:24:58.400Z,59.95
2018-03-25T01:27:27.652Z,77.05
2018-03-25T01:29:56.397Z,80.90
2018-03-25T01:32:25.006Z,61.13
2018-03-25T01:34:53.645Z,59.92
2018-03-25T01:37:22.250Z,63.50
2018-03-25T01:39:50.872Z,63.87
2018-03-25T01:42:19.469Z,62.15
2018-03-25T01:44:48.140Z,58.72
2018-03-25T01:47:16.723Z,59.67
2018-03-25T01:49:45.279Z,61.42
2018-03-25T01:52:13.840Z,60.53
2018-03-25T01:54:42.420Z,57.05
2018-03-25T01:57:11.010Z,56.50
2018-03-25T01:59:39.655Z,53.47
2018-03-25T02:02:08.883Z,57.17
2018-03-25T02:04:37.486Z,58.95
2018-03-25T02:07:06.049Z,58.42
2018-03-25T02:09:34.751Z,59.17
2018-03-25T02:12:04.467Z,56.75
2018-03-25T02:14:33.073Z,54.58
2018-03-25T02:17:01.620Z,54.75
2018-03-25T02:19:30.528Z,49.10
2018-03-25T02:21:59.117Z,45.40
2018-03-25T02:24:28.685Z,44.90
2018-03-25T02:26:57.479Z,47.33
2018-03-25T02:29:26.136Z,45.30
2018-03-25T02:31:54.707Z,47.80
2018-03-25T02:34:23.689Z,47.53
2018-03-25T02:36:52.406Z,44.90
2018-03-25T02:39:21.115Z,43.13
2018-03-25T02:41:49.781Z,43.92
2018-03-25T02:44:18.416Z,41.85
2018-03-25T02:46:47.028Z,42.62
2018-03-25T02:49:15.686Z,39.83
2018-03-25T02:51:44.308Z,40.33
2018-03-25T02:54:12.939Z,41.35
2018-03-25T02:56:41.575Z,39.30
2018-03-25T02:59:10.202Z,38.47
2018-03-25T03:01:38.827Z,37.88
2018-03-25T03:04:07.448Z,39.20
2018-03-25T03:06:36.647Z,41.03
2018-03-25T03:09:05.342Z,41.17
2018-03-25T03:11:34.004Z,39.67
2018-03-25T03:14:02.619Z,42.00
2018-03-25T03:16:31.274Z,39.58
2018-03-25T03:18:59.873Z,39.88
2018-03-25T03:21:28.606Z,41.53
2018-03-25T03:23:57.262Z,41.13
2018-03-25T03:26:25.951Z,40.03
2018-03-25T03:28:54.566Z,40.95
2018-03-25T03:31:23.149Z,42.67
2018-03-25T03:33:51.774Z,43.55
2018-03-25T03:36:20.425Z,42.05
2018-03-25T03:38:49.043Z,41.40
2018-03-25T03:41:17.709Z,44.05
2018-03-25T03:43:46.341Z,43.25
2018-03-25T03:46:14.942Z,44.40
2018-03-25T03:48:43.591Z,44.55
2018-03-25T03:51:12.251Z,46.20
2018-03-25T03:53:40.869Z,44.20
2018-03-25T03:56:09.474Z,44.15
2018-03-25T03:58:38.409Z,40.05
2018-03-25T04:01:07.132Z,41.03
2018-03-25T04:03:36.536Z,37.60
2018-03-25T04:06:05.383Z,40.05
2018-03-25T04:08:34.043Z,38.15
2018-03-25T04:11:02.784Z,36.05
2018-03-25T04:13:31.568Z,37.42
2018-03-25T04:16:00.368Z,34.10
2018-03-25T04:18:29.190Z,34.80
2018-03-25T04:20:57.779Z,36.72
2018-03-25T04:23:26.691Z,36.55
2018-03-25T04:25:55.453Z,37.58
2018-03-25T04:28:24.376Z,36.70
2018-03-25T04:30:52.995Z,34.95
2018-03-25T04:33:21.571Z,36.75
2018-03-25T04:35:50.344Z,36.90
2018-03-25T04:38:19.062Z,36.35
2018-03-25T04:40:47.732Z,38.10
2018-03-25T04:43:17.512Z,34.38
2018-03-25T04:45:46.419Z,35.58
2018-03-25T04:48:15.165Z,65.55
2018-03-25T04:50:43.877Z,44.72
2018-03-25T04:53:12.700Z,39.03
2018-03-25T04:55:41.521Z,37.97
2018-03-25T04:58:10.342Z,37.08
2018-03-25T05:00:39.173Z,35.38
2018-03-25T05:03:07.787Z,32.70
2018-03-25T05:05:36.437Z,34.45
2018-03-25T05:08:05.229Z,34.88
2018-03-25T05:10:34.056Z,33.42
2018-03-25T05:13:02.783Z,33.92
2018-03-25T05:15:32.420Z,34.50
2018-03-25T05:18:01.190Z,35.63
2018-03-25T05:20:29.776Z,36.17
2018-03-25T05:22:58.477Z,35.75
2018-03-25T05:25:27.287Z,38.92
2018-03-25T05:27:56.008Z,39.88
2018-03-25T05:30:24.731Z,44.22
2018-03-25T05:32:53.554Z,38.90
2018-03-25T05:35:22.203Z,36.45
2018-03-25T05:37:51.160Z,38.80
2018-03-25T05:40:20.433Z,36.97
2018-03-25T05:42:49.118Z,38.15
2018-03-25T05:45:17.777Z,36.15
2018-03-25T05:47:46.472Z,35.70
2018-03-25T05:50:15.146Z,38.20
2018-03-25T05:52:43.759Z,34.97
2018-03-25T05:55:12.398Z,37.50
2018-03-25T05:57:41.018Z,36.08
2018-03-25T06:00:09.655Z,38.03
2018-03-25T06:02:38.416Z,38.35
2018-03-25T06:05:07.143Z,36.40
2018-03-25T06:07:35.961Z,36.35
2018-03-25T06:10:04.678Z,38.22
2018-03-25T06:12:33.503Z,36.33
2018-03-25T06:15:08.562Z,38.03
2018-03-25T06:17:44.095Z,37.33
2018-03-25T06:20:12.819Z,38.63
2018-03-25T06:22:41.643Z,37.38
2018-03-25T06:25:10.326Z,40.35
2018-03-25T06:27:38.998Z,39.70
2018-03-25T06:30:07.706Z,41.13
2018-03-25T06:32:36.828Z,39.88
2018-03-25T06:35:05.654Z,41.15
2018-03-25T06:37:34.272Z,39.30
2018-03-25T06:40:03.093Z,38.05
2018-03-25T06:42:31.919Z,38.55
2018-03-25T06:45:01.483Z,34.80
2018-03-25T06:47:30.262Z,34.72
2018-03-25T06:49:59.003Z,37.08
2018-03-25T06:52:27.716Z,36.47
2018-03-25T06:54:56.630Z,39.00
2018-03-25T06:57:25.355Z,38.15
2018-03-25T06:59:54.064Z,35.65
2018-03-25T07:02:22.711Z,35.75
2018-03-25T07:04:52.131Z,32.33
2018-03-25T07:07:20.759Z,32.60
2018-03-25T07:09:50.265Z,29.55
2018-03-25T07:12:19.093Z,32.30
2018-03-25T07:14:47.821Z,30.60
2018-03-25T07:17:16.542Z,33.10
2018-03-25T07:19:45.167Z,30.15
2018-03-25T07:22:13.774Z,33.70
2018-03-25T07:24:42.516Z,33.05
2018-03-25T07:27:11.263Z,32.80
2018-03-25T07:29:40.045Z,32.63
2018-03-25T07:32:08.747Z,31.92
2018-03-25T07:34:37.383Z,32.83
2018-03-25T07:37:06.277Z,30.60
2018-03-25T07:39:34.942Z,31.42
2018-03-25T07:42:04.355Z,31.20
2018-03-25T07:44:33.176Z,32.67
2018-03-25T07:47:01.813Z,31.58
2018-03-25T07:49:30.740Z,31.55
2018-03-25T07:51:59.440Z,33.55
2018-03-25T07:54:28.163Z,30.60
2018-03-25T07:56:56.912Z,28.80
2018-03-25T07:59:25.511Z,30.27
2018-03-25T08:01:54.135Z,29.95
2018-03-25T08:04:22.854Z,31.45
2018-03-25T08:06:51.571Z,32.90
2018-03-25T08:09:20.293Z,32.13
2018-03-25T08:11:49.018Z,34.15
2018-03-25T08:14:17.856Z,34.42
2018-03-25T08:16:46.561Z,34.63
2018-03-25T08:19:16.587Z,37.72
2018-03-25T08:21:45.222Z,35.63
2018-03-25T08:24:13.881Z,36.50
2018-03-25T08:26:42.571Z,37.45
2018-03-25T08:29:11.275Z,36.53
2018-03-25T08:31:39.966Z,38.00
2018-03-25T08:34:08.604Z,39.35
2018-03-25T08:36:37.276Z,39.97
2018-03-25T08:39:06.018Z,39.58
2018-03-25T08:41:35.034Z,38.85
2018-03-25T08:44:03.711Z,37.10
2018-03-25T08:46:33.002Z,38.47
2018-03-25T08:49:01.753Z,38.97
2018-03-25T08:51:30.373Z,37.03
2018-03-25T08:53:59.118Z,37.20
2018-03-25T08:56:27.916Z,38.00
2018-03-25T08:58:56.608Z,39.20
2018-03-25T09:01:25.461Z,35.05
2018-03-25T09:03:54.107Z,38.20
2018-03-25T09:06:22.904Z,39.40
2018-03-25T09:08:51.626Z,35.90
2018-03-25T09:11:20.448Z,38.08
2018-03-25T09:13:49.172Z,37.83
2018-03-25T09:16:18.336Z,39.63
2018-03-25T09:18:48.523Z,39.58
2018-03-25T09:21:17.443Z,43.42
2018-03-25T09:23:46.141Z,39.97
2018-03-25T09:26:14.887Z,38.55
2018-03-25T09:28:43.717Z,40.12
2018-03-25T09:31:12.532Z,41.30
2018-03-25T09:33:41.257Z,38.30
2018-03-25T09:36:09.890Z,37.30
2018-03-25T09:38:38.766Z,36.38
2018-03-25T09:41:07.404Z,33.92
2018-03-25T09:43:37.145Z,32.38
2018-03-25T09:46:05.867Z,32.15
2018-03-25T09:48:34.591Z,34.95
2018-03-25T09:51:04.526Z,32.33
2018-03-25T09:53:33.337Z,33.42
2018-03-25T09:56:02.159Z,35.72
2018-03-25T09:58:31.086Z,37.08
2018-03-25T10:01:07.029Z,35.78
2018-03-25T10:03:35.844Z,38.95
2018-03-25T10:06:05.325Z,40.22
2018-03-25T10:08:33.922Z,37.65
2018-03-25T10:11:02.825Z,37.28
2018-03-25T10:13:31.720Z,36.30
2018-03-25T10:16:00.672Z,37.20
2018-03-25T10:18:29.502Z,34.35
2018-03-25T10:20:58.411Z,38.60
2018-03-25T10:23:27.120Z,37.72
2018-03-25T10:25:56.961Z,37.55
2018-03-25T10:28:25.681Z,37.10
2018-03-25T10:30:54.488Z,36.38
2018-03-25T10:33:23.124Z,36.38
2018-03-25T10:35:51.964Z,39.28
2018-03-25T10:38:21.132Z,38.53
2018-03-25T10:40:49.992Z,39.10
2018-03-25T10:43:18.896Z,39.42
2018-03-25T10:45:47.961Z,35.17
2018-03-25T10:48:16.759Z,35.25
2018-03-25T10:50:45.585Z,33.65
2018-03-25T10:53:14.505Z,31.42
2018-03-25T10:55:43.305Z,43.47
2018-03-25T10:58:12.046Z,32.22
2018-03-25T11:00:40.835Z,36.90
2018-03-25T11:03:09.593Z,39.10
2018-03-25T11:05:38.231Z,42.08
2018-03-25T11:08:06.936Z,37.63
2018-03-25T11:10:35.657Z,40.25
2018-03-25T11:13:05.383Z,37.85
2018-03-25T11:15:34.807Z,37.75
2018-03-25T11:18:06.695Z,37.83
2018-03-25T11:20:36.267Z,37.10
2018-03-25T11:23:05.019Z,37.53
2018-03-25T11:25:33.782Z,35.75
2018-03-25T11:28:02.468Z,36.55
2018-03-25T11:30:31.354Z,34.67
2018-03-25T11:33:00.184Z,36.83
2018-03-25T11:35:28.894Z,35.47
2018-03-25T11:37:58.849Z,39.15
2018-03-25T11:40:28.151Z,38.47
2018-03-25T11:42:56.970Z,38.67
2018-03-25T11:45:25.608Z,37.50
2018-03-25T11:47:56.421Z,38.50
2018-03-25T11:50:25.243Z,41.70
2018-03-25T11:52:53.897Z,40.20
2018-03-25T11:55:22.500Z,38.92
2018-03-25T11:57:52.112Z,34.90
2018-03-25T12:00:20.745Z,34.78
2018-03-25T12:02:50.758Z,34.58
2018-03-25T12:05:19.498Z,35.63
2018-03-25T12:07:48.309Z,33.35
2018-03-25T12:10:17.876Z,33.53
2018-03-25T12:12:46.650Z,32.78
2018-03-25T12:15:15.580Z,35.78
2018-03-25T12:17:44.493Z,38.33
2018-03-25T12:20:13.318Z,42.70
2018-03-25T12:22:42.039Z,40.93
2018-03-25T12:25:10.700Z,38.23
2018-03-25T12:27:39.383Z,39.83
2018-03-25T12:30:08.038Z,37.47
2018-03-25T12:32:36.688Z,34.83
2018-03-25T12:35:05.426Z,33.53
2018-03-25T12:37:34.169Z,33.85
2018-03-25T12:40:03.049Z,33.47
2018-03-25T12:42:31.689Z,35.23
2018-03-25T12:45:00.742Z,35.75
2018-03-25T12:47:33.544Z,36.88
2018-03-25T12:50:02.225Z,36.70
2018-03-25T12:52:30.962Z,37.37
2018-03-25T12:55:00.407Z,34.73
2018-03-25T12:57:29.101Z,35.03
2018-03-25T12:59:57.764Z,36.90
2018-03-25T13:02:26.362Z,35.63
2018-03-25T13:04:55.027Z,37.10
2018-03-25T13:07:23.805Z,34.78
2018-03-25T13:09:52.414Z,34.73
2018-03-25T13:12:22.238Z,36.07
2018-03-25T13:14:50.918Z,39.10
2018-03-25T13:17:19.756Z,37.23
2018-03-25T13:19:48.467Z,39.87
2018-03-25T13:22:17.185Z,38.30
2018-03-25T13:24:45.871Z,39.00
2018-03-25T13:27:14.512Z,37.63
2018-03-25T13:29:43.251Z,39.87
2018-03-25T13:32:11.968Z,38.37
2018-03-25T13:34:40.689Z,37.77
2018-03-25T13:37:09.520Z,39.40
2018-03-25T13:39:38.155Z,39.70
2018-03-25T13:42:06.961Z,38.93
2018-03-25T13:44:35.606Z,39.33
2018-03-25T13:47:04.303Z,41.60
2018-03-25T13:49:32.908Z,41.53
2018-03-25T13:52:01.550Z,42.58
2018-03-25T13:54:30.156Z,40.43
2018-03-25T13:56:58.797Z,40.00
2018-03-25T13:59:27.800Z,40.13
2018-03-25T14:01:56.460Z,38.97
2018-03-25T14:04:25.163Z,39.40
2018-03-25T14:06:53.804Z,41.90
2018-03-25T14:09:22.601Z,40.93
2018-03-25T14:11:51.287Z,42.33
2018-03-25T14:14:19.944Z,42.20
2018-03-25T14:16:48.603Z,42.27
2018-03-25T14:19:17.297Z,44.47
2018-03-25T14:21:46.031Z,44.53
2018-03-25T14:24:14.895Z,46.73
2018-03-25T14:26:43.564Z,43.73
2018-03-25T14:29:12.254Z,49.00
2018-03-25T14:31:41.623Z,46.83
2018-03-25T14:34:45.247Z,49.95
2018-03-25T14:37:14.788Z,49.15
2018-03-25T14:39:43.886Z,47.53
2018-03-25T14:42:12.633Z,48.08
2018-03-25T14:44:41.537Z,47.65
2018-03-25T14:47:10.175Z,50.47
2018-03-25T14:49:38.879Z,50.38
2018-03-25T14:52:07.541Z,52.58
2018-03-25T14:54:36.221Z,54.42
2018-03-25T14:57:04.854Z,53.40
2018-03-25T14:59:33.467Z,55.33
2018-03-25T15:02:02.260Z,57.03
2018-03-25T15:04:31.009Z,58.70
2018-03-25T15:06:59.648Z,54.25
2018-03-25T15:09:28.234Z,57.35
2018-03-25T15:11:58.039Z,61.03
2018-03-25T15:14:28.106Z,61.10
2018-03-25T15:16:57.530Z,60.38
2018-03-25T15:19:26.257Z,62.90
2018-03-25T15:21:54.891Z,66.33
2018-03-25T15:24:24.298Z,64.65
2018-03-25T15:26:53.114Z,64.03
2018-03-25T15:29:21.742Z,61.05
2018-03-25T15:31:50.438Z,64.03
2018-03-25T15:34:19.190Z,67.57
2018-03-25T15:36:48.813Z,68.28
2018-03-25T15:39:18.283Z,66.15
2018-03-25T15:41:46.931Z,67.15
2018-03-25T15:44:15.541Z,66.03
2018-03-25T15:46:44.162Z,65.37
2018-03-25T15:49:13.033Z,67.05
2018-03-25T15:51:41.642Z,65.62
2018-03-25T15:54:10.328Z,70.05
2018-03-25T15:56:39.564Z,68.22
2018-03-25T15:59:08.155Z,70.05
2018-03-25T16:01:36.777Z,72.20
2018-03-25T16:04:05.390Z,71.22
2018-03-25T16:06:34.016Z,76.55
2018-03-25T16:09:03.708Z,75.10
2018-03-25T16:11:33.068Z,75.43
2018-03-25T16:14:01.708Z,69.43
2018-03-25T16:16:30.339Z,67.93
2018-03-25T16:19:01.767Z,68.18
2018-03-25T16:21:30.724Z,71.40
2018-03-25T16:23:59.418Z,73.25
2018-03-25T16:26:28.235Z,72.35
2018-03-25T16:28:56.948Z,70.12
2018-03-25T16:31:26.678Z,68.80
2018-03-25T16:33:56.292Z,70.95
2018-03-25T16:36:27.052Z,73.03
2018-03-25T16:38:55.881Z,71.35
2018-03-25T16:41:24.632Z,73.55
2018-03-25T16:43:53.535Z,73.65
2018-03-25T16:46:23.881Z,72.47
2018-03-25T16:48:52.482Z,75.53
2018-03-25T16:51:21.124Z,72.43
2018-03-25T16:53:49.748Z,68.07
2018-03-25T16:56:18.507Z,72.72
2018-03-25T16:58:52.792Z,69.40
2018-03-25T17:04:03.901Z,68.45
2018-03-25T17:06:33.247Z,74.75
2018-03-25T17:09:01.902Z,70.82
2018-03-25T17:11:32.518Z,72.70
2018-03-25T17:14:01.248Z,71.95
2018-03-25T17:16:29.931Z,66.90
2018-03-25T17:18:58.599Z,86.18
2018-03-25T17:21:29.943Z,76.53
2018-03-25T17:24:04.799Z,72.20
2018-03-25T17:26:33.500Z,70.57
2018-03-25T17:29:03.068Z,66.47
2018-03-25T17:31:31.702Z,59.90
2018-03-25T17:34:00.317Z,60.03
2018-03-25T17:36:28.950Z,58.22
2018-03-25T17:39:00.258Z,56.75
2018-03-25T17:41:29.765Z,51.92
2018-03-25T17:44:00.122Z,49.20
2018-03-25T17:46:32.736Z,47.92
2018-03-25T17:49:01.364Z,51.40
2018-03-25T17:51:29.991Z,48.25
2018-03-25T17:53:58.664Z,49.78
2018-03-25T17:56:29.022Z,44.55
2018-03-25T17:58:58.480Z,43.55
2018-03-25T18:01:29.816Z,43.60
2018-03-25T18:04:00.212Z,43.75
2018-03-25T18:06:28.891Z,44.40
2018-03-25T18:08:57.526Z,45.17
2018-03-25T18:11:26.400Z,44.22
2018-03-25T18:13:55.002Z,50.20
2018-03-25T18:16:24.599Z,46.80
2018-03-25T18:18:53.189Z,47.17
2018-03-25T18:21:21.820Z,45.25
2018-03-25T18:23:50.407Z,45.85
2018-03-25T18:26:19.827Z,42.55
2018-03-25T18:28:48.947Z,42.83
2018-03-25T18:31:17.539Z,44.03
2018-03-25T18:33:46.134Z,42.03
2018-03-25T18:36:14.736Z,43.97
2018-03-25T18:38:43.355Z,42.97
2018-03-25T18:41:12.987Z,43.95
2018-03-25T18:43:41.624Z,45.40
2018-03-25T18:46:10.209Z,45.22
2018-03-25T18:48:38.803Z,45.20
2018-03-25T18:51:07.446Z,45.30
2018-03-25T18:53:36.117Z,42.28
2018-03-25T18:56:04.787Z,50.63
2018-03-25T18:58:33.364Z,60.25
2018-03-25T19:01:01.998Z,42.95
2018-03-25T19:03:30.592Z,42.47
2018-03-25T19:05:59.208Z,42.38
2018-03-25T19:08:27.787Z,39.65
2018-03-25T19:10:56.367Z,41.67
2018-03-25T19:13:25.070Z,41.13
2018-03-25T19:15:53.699Z,42.80
2018-03-25T19:18:23.587Z,42.17
2018-03-25T19:20:52.191Z,41.45
2018-03-25T19:23:20.745Z,41.05
2018-03-25T19:25:49.377Z,44.72
2018-03-25T19:28:18.960Z,42.78
2018-03-25T19:30:47.561Z,40.83
2018-03-25T19:33:16.190Z,39.40
2018-03-25T19:35:44.772Z,40.83
2018-03-25T19:38:13.391Z,39.67
2018-03-25T19:40:42.011Z,39.47
2018-03-25T19:43:10.629Z,42.28
2018-03-25T19:45:39.258Z,39.10
2018-03-25T19:48:07.825Z,40.17
2018-03-25T19:50:36.457Z,37.92
2018-03-25T19:53:05.099Z,35.38
2018-03-25T19:55:33.675Z,37.55
2018-03-25T19:58:03.116Z,38.03
2018-03-25T20:00:31.715Z,38.40
2018-03-25T20:03:00.334Z,38.10
2018-03-25T20:05:29.020Z,40.63
2018-03-25T20:07:57.638Z,40.33
2018-03-25T20:10:26.268Z,37.65
2018-03-25T20:12:54.844Z,37.95
2018-03-25T20:15:23.681Z,37.53
2018-03-25T20:17:53.096Z,37.95
2018-03-25T20:20:21.725Z,42.22
2018-03-25T20:22:50.307Z,35.88
2018-03-25T20:25:18.893Z,36.25
2018-03-25T20:27:47.452Z,34.17
2018-03-25T20:30:16.101Z,30.17
2018-03-25T20:32:45.052Z,32.90
2018-03-25T20:35:14.299Z,32.17
2018-03-25T20:37:42.862Z,30.23
2018-03-25T20:40:12.235Z,31.37
2018-03-25T20:42:41.648Z,31.35
2018-03-25T20:45:10.221Z,30.48
2018-03-25T20:47:39.085Z,30.67
2018-03-25T20:50:08.621Z,30.30
2018-03-25T20:52:39.034Z,31.67
2018-03-25T20:55:07.678Z,30.52
2018-03-25T20:57:37.121Z,31.90
2018-03-25T21:00:05.780Z,31.17
2018-03-25T21:02:35.079Z,29.55
2018-03-25T21:05:03.886Z,27.55
2018-03-25T21:07:32.525Z,27.95
2018-03-25T21:10:01.922Z,27.80
2018-03-25T21:12:30.581Z,29.65
2018-03-25T21:14:59.181Z,30.42
2018-03-25T21:17:27.795Z,30.48
2018-03-25T21:19:56.390Z,31.73
2018-03-25T21:22:24.965Z,32.38
2018-03-25T21:24:54.604Z,32.17
2018-03-25T21:27:23.716Z,30.60
2018-03-25T21:29:52.439Z,32.53
2018-03-25T21:32:21.165Z,28.87
2018-03-25T21:34:49.762Z,28.38
2018-03-25T21:37:18.440Z,28.92
2018-03-25T21:39:48.791Z,27.30
2018-03-25T21:42:17.495Z,28.80
2018-03-25T21:44:46.114Z,26.95
2018-03-25T21:47:14.742Z,26.83
2018-03-25T21:49:43.326Z,24.60
2018-03-25T21:52:11.950Z,24.50
2018-03-25T21:54:40.535Z,24.08
2018-03-25T21:57:09.149Z,24.77
2018-03-25T21:59:37.726Z,23.77
2018-03-25T22:02:06.373Z,24.27
2018-03-25T22:04:35.005Z,22.90
2018-03-25T22:07:03.731Z,20.33
2018-03-25T22:09:32.410Z,24.95
2018-03-25T22:12:01.237Z,21.70
2018-03-25T22:14:30.162Z,20.80
2018-03-25T22:16:58.883Z,21.15
2018-03-25T22:19:28.413Z,21.60
2018-03-25T22:21:57.056Z,21.35
2018-03-25T22:24:25.695Z,43.50
2018-03-25T22:26:54.375Z,46.95
2018-03-25T22:29:23.710Z,26.60
2018-03-25T22:31:52.522Z,19.83
2018-03-25T22:34:21.098Z,18.27
2018-03-25T22:36:49.834Z,16.33
2018-03-25T22:39:18.397Z,16.80
2018-03-25T22:41:47.513Z,17.12
2018-03-25T22:44:16.138Z,15.55
2018-03-25T22:46:44.747Z,16.90
2018-03-25T22:49:13.317Z,17.20
2018-03-25T22:51:42.672Z,17.05
2018-03-25T22:54:11.417Z,16.23
2018-03-25T22:56:40.006Z,15.98
2018-03-25T22:59:08.629Z,18.17
2018-03-25T23:01:37.319Z,15.82
2018-03-25T23:04:06.761Z,15.88
2018-03-25T23:06:35.393Z,15.98
2018-03-25T23:09:04.104Z,15.88
2018-03-25T23:11:32.735Z,16.35
2018-03-25T23:14:01.493Z,15.63
2018-03-25T23:16:30.321Z,15.38
2018-03-25T23:18:58.992Z,14.43
2018-03-25T23:21:27.625Z,14.70
2018-03-25T23:23:56.239Z,15.45
2018-03-25T23:26:25.568Z,14.38
2018-03-25T23:28:54.185Z,16.50
2018-03-25T23:31:22.875Z,15.45
2018-03-25T23:33:51.469Z,15.93
2018-03-25T23:36:20.024Z,16.02
2018-03-25T23:38:48.629Z,15.30
2018-03-25T23:41:17.244Z,16.10
2018-03-25T23:43:45.878Z,16.37
2018-03-25T23:46:14.495Z,16.25
2018-03-25T23:48:43.134Z,16.00
2018-03-25T23:51:11.741Z,15.50
2018-03-25T23:53:40.726Z,16.55
2018-03-25T23:56:09.304Z,15.18
2018-03-25T23:58:38.654Z,14.87
